sensor_id;sensor_type;location;lat;lon;timestamp;pressure;altitude;pressure_sealevel;temperature;humidity
74437;BME280;62868;52.360;30.424;2023-09-19T00:01:23;1029.5;;;15.7;53.4
74437;BME280;62868;52.360;30.424;2023-09-19T00:06:31;1029.4;;;15.7;53.4
74437;BME280;62868;52.360;30.424;2023-09-19T00:10:51;1029.4;;;15.7;53.6
74437;BME280;62868;52.360;30.424;2023-09-19T00:16:09;1029.4;;;15.7;53.7
74437;BME280;62868;52.360;30.424;2023-09-19T00:21:31;1029.4;;;15.7;53.8
74437;BME280;62868;52.360;30.424;2023-09-19T00:26:07;1029.4;;;15.7;53.9
74437;BME280;62868;52.360;30.424;2023-09-19T00:30:57;1029.4;;;15.7;53.8
74437;BME280;62868;52.360;30.424;2023-09-19T00:35:51;1029.4;;;15.7;53.9
74437;BME280;62868;52.360;30.424;2023-09-19T00:41:31;1029.4;;;15.7;53.9
74437;BME280;62868;52.360;30.424;2023-09-19T00:46:31;1029.3;;;15.7;54
74437;BME280;62868;52.360;30.424;2023-09-19T00:51:23;1029.3;;;15.7;54.1
74437;BME280;62868;52.360;30.424;2023-09-19T00:56:15;1029.3;;;15.6;54.2
74437;BME280;62868;52.360;30.424;2023-09-19T01:00:45;1029.3;;;15.6;54.3
74437;BME280;62868;52.360;30.424;2023-09-19T01:06:21;1029.3;;;15.6;54.3
74437;BME280;62868;52.360;30.424;2023-09-19T01:11:31;1029.2;;;15.6;54.4
74437;BME280;62868;52.360;30.424;2023-09-19T01:16:08;1029.1;;;15.6;54.4
74437;BME280;62868;52.360;30.424;2023-09-19T01:20:53;1029.1;;;15.5;54.5
74437;BME280;62868;52.360;30.424;2023-09-19T01:26:03;1029.1;;;15.5;54.6
74437;BME280;62868;52.360;30.424;2023-09-19T01:31:21;1029;;;15.5;54.7
74437;BME280;62868;52.360;30.424;2023-09-19T01:36:30;1029;;;15.4;54.8
74437;BME280;62868;52.360;30.424;2023-09-19T01:41:06;1029;;;15.4;54.8
74437;BME280;62868;52.360;30.424;2023-09-19T01:46:19;1028.9;;;15.4;54.9
74437;BME280;62868;52.360;30.424;2023-09-19T01:50:52;1028.9;;;15.4;54.8
74437;BME280;62868;52.360;30.424;2023-09-19T01:56:10;1029;;;15.3;55
74437;BME280;62868;52.360;30.424;2023-09-19T02:01:31;1029;;;15.3;55
74437;BME280;62868;52.360;30.424;2023-09-19T02:05:48;1028.9;;;15.2;55.1
74437;BME280;62868;52.360;30.424;2023-09-19T02:10:51;1028.8;;;15.1;55.2
74437;BME280;62868;52.360;30.424;2023-09-19T02:16:01;1028.8;;;15.1;55.3
74437;BME280;62868;52.360;30.424;2023-09-19T02:21:29;1028.8;;;15.1;55.5
74437;BME280;62868;52.360;30.424;2023-09-19T02:26:29;1028.7;;;15;55.6
74437;BME280;62868;52.360;30.424;2023-09-19T02:31:21;1028.7;;;14.9;55.7
74437;BME280;62868;52.360;30.424;2023-09-19T02:35:54;1028.7;;;14.9;55.7
74437;BME280;62868;52.360;30.424;2023-09-19T02:40:55;1028.7;;;14.8;56
74437;BME280;62868;52.360;30.424;2023-09-19T02:45:45;1028.7;;;14.7;56.2
74437;BME280;62868;52.360;30.424;2023-09-19T02:51:29;1028.7;;;14.6;56.3
74437;BME280;62868;52.360;30.424;2023-09-19T02:55:49;1028.7;;;14.5;56.5
74437;BME280;62868;52.360;30.424;2023-09-19T03:00:51;1028.6;;;14.5;56.6
74437;BME280;62868;52.360;30.424;2023-09-19T03:05:55;1028.6;;;14.4;56.8
74437;BME280;62868;52.360;30.424;2023-09-19T03:11:01;1028.6;;;14.4;57
74437;BME280;62868;52.360;30.424;2023-09-19T03:16:29;1028.6;;;14.4;57
74437;BME280;62868;52.360;30.424;2023-09-19T03:21:29;1028.5;;;14.3;57
74437;BME280;62868;52.360;30.424;2023-09-19T03:26:31;1028.5;;;14.3;57.2
74437;BME280;62868;52.360;30.424;2023-09-19T03:31:23;1028.5;;;14.3;57.3
74437;BME280;62868;52.360;30.424;2023-09-19T03:36:07;1028.5;;;14.3;57.3
74437;BME280;62868;52.360;30.424;2023-09-19T03:41:15;1028.5;;;14.3;57.4
74437;BME280;62868;52.360;30.424;2023-09-19T03:45:45;1028.5;;;14.3;57.5
74437;BME280;62868;52.360;30.424;2023-09-19T03:50:45;1028.5;;;14.3;57.4
74437;BME280;62868;52.360;30.424;2023-09-19T03:56:01;1028.5;;;14.4;57.4
74437;BME280;62868;52.360;30.424;2023-09-19T04:00:55;1028.5;;;14.4;57.3
74437;BME280;62868;52.360;30.424;2023-09-19T04:06:27;1028.4;;;14.5;57.3
74437;BME280;62868;52.360;30.424;2023-09-19T04:11:29;1028.4;;;14.6;57.2
74437;BME280;62868;52.360;30.424;2023-09-19T04:16:15;1028.4;;;14.7;57.1
74437;BME280;62868;52.360;30.424;2023-09-19T04:21:23;1028.3;;;14.9;57
74437;BME280;62868;52.360;30.424;2023-09-19T04:26:03;1028.3;;;15.2;56.7
74437;BME280;62868;52.360;30.424;2023-09-19T04:31:15;1028.3;;;15.5;56.5
74437;BME280;62868;52.360;30.424;2023-09-19T04:35:49;1028.2;;;15.8;56.2
74437;BME280;62868;52.360;30.424;2023-09-19T04:40:49;1028.2;;;16.1;55.8
74437;BME280;62868;52.360;30.424;2023-09-19T04:45:45;1028.2;;;16.4;55.5
74437;BME280;62868;52.360;30.424;2023-09-19T04:50:49;1028.1;;;16.6;55.2
74437;BME280;62868;52.360;30.424;2023-09-19T04:56:09;1028.1;;;16.9;54.9
74437;BME280;62868;52.360;30.424;2023-09-19T05:01:29;1028.1;;;17.1;54.6
74437;BME280;62868;52.360;30.424;2023-09-19T05:06:17;1028.1;;;17.4;54.3
74437;BME280;62868;52.360;30.424;2023-09-19T05:11:31;1028;;;17.7;53.9
74437;BME280;62868;52.360;30.424;2023-09-19T05:15:45;1028;;;17.9;53.7
74437;BME280;62868;52.360;30.424;2023-09-19T05:21:15;1028;;;18.3;53.2
74437;BME280;62868;52.360;30.424;2023-09-19T05:25:45;1027.9;;;18.7;52.7
74437;BME280;62868;52.360;30.424;2023-09-19T05:31:07;1027.9;;;19;52.4
74437;BME280;62868;52.360;30.424;2023-09-19T05:35:45;1027.8;;;19.3;52
74437;BME280;62868;52.360;30.424;2023-09-19T05:40:59;1027.8;;;19.6;51.7
74437;BME280;62868;52.360;30.424;2023-09-19T05:46:23;1027.8;;;19.8;51.4
74437;BME280;62868;52.360;30.424;2023-09-19T05:51:25;1027.8;;;19.9;51.3
74437;BME280;62868;52.360;30.424;2023-09-19T05:56:13;1027.8;;;20.2;50.9
74437;BME280;62868;52.360;30.424;2023-09-19T06:01:25;1027.8;;;20.6;50.4
74437;BME280;62868;52.360;30.424;2023-09-19T06:06:09;1027.8;;;20.9;50.1
74437;BME280;62868;52.360;30.424;2023-09-19T06:11:17;1027.8;;;21.1;49.8
74437;BME280;62868;52.360;30.424;2023-09-19T06:15:45;1027.8;;;21.3;49.5
74437;BME280;62868;52.360;30.424;2023-09-19T06:20:45;1027.8;;;21.6;49.1
74437;BME280;62868;52.360;30.424;2023-09-19T06:25:45;1027.8;;;21.9;48.7
74437;BME280;62868;52.360;30.424;2023-09-19T06:30:53;1027.8;;;22;48.5
74437;BME280;62868;52.360;30.424;2023-09-19T06:36:27;1027.8;;;22.1;48.2
74437;BME280;62868;52.360;30.424;2023-09-19T06:41:31;1027.7;;;22.4;47.8
74437;BME280;62868;52.360;30.424;2023-09-19T06:46:17;1027.7;;;22.6;47.5
74437;BME280;62868;52.360;30.424;2023-09-19T06:51:29;1027.7;;;23;47.1
74437;BME280;62868;52.360;30.424;2023-09-19T06:56:09;1027.6;;;23.4;46.7
74437;BME280;62868;52.360;30.424;2023-09-19T07:01:15;1027.6;;;23.7;46.2
74437;BME280;62868;52.360;30.424;2023-09-19T07:06:03;1027.6;;;23.9;46
74437;BME280;62868;52.360;30.424;2023-09-19T07:10:45;1027.6;;;24.3;45.6
74437;BME280;62868;52.360;30.424;2023-09-19T07:15:55;1027.6;;;24.6;45.3
74437;BME280;62868;52.360;30.424;2023-09-19T07:21:01;1027.6;;;24.7;44.9
74437;BME280;62868;52.360;30.424;2023-09-19T07:26:11;1027.5;;;25.1;44.6
74437;BME280;62868;52.360;30.424;2023-09-19T07:31:09;1027.5;;;25.2;44.3
74437;BME280;62868;52.360;30.424;2023-09-19T07:36:29;1027.4;;;25.6;44
74437;BME280;62868;52.360;30.424;2023-09-19T07:41:29;1027.4;;;26;43.5
74437;BME280;62868;52.360;30.424;2023-09-19T07:46:31;1027.4;;;26.2;43.4
74437;BME280;62868;52.360;30.424;2023-09-19T07:51:17;1027.4;;;26.4;42.9
74437;BME280;62868;52.360;30.424;2023-09-19T07:55:51;1027.3;;;26.7;42.5
74437;BME280;62868;52.360;30.424;2023-09-19T08:00:45;1027.3;;;27;42.1
74437;BME280;62868;52.360;30.424;2023-09-19T08:06:09;1027.2;;;27.2;41.7
74437;BME280;62868;52.360;30.424;2023-09-19T08:10:45;1027.2;;;27.3;41.3
74437;BME280;62868;52.360;30.424;2023-09-19T08:16:11;1027.1;;;27.6;40.8
74437;BME280;62868;52.360;30.424;2023-09-19T08:20:49;1027;;;27.7;40.3
74437;BME280;62868;52.360;30.424;2023-09-19T08:26:31;1026.9;;;27.8;40
74437;BME280;62868;52.360;30.424;2023-09-19T08:31:31;1026.8;;;27.9;39.5
74437;BME280;62868;52.360;30.424;2023-09-19T08:36:09;1026.8;;;28.1;39
74437;BME280;62868;52.360;30.424;2023-09-19T08:41:31;1026.7;;;28.3;38.5
74437;BME280;62868;52.360;30.424;2023-09-19T08:46:23;1026.6;;;28.4;38
74437;BME280;62868;52.360;30.424;2023-09-19T08:51:18;1026.6;;;28.8;37.5
74437;BME280;62868;52.360;30.424;2023-09-19T08:56:31;1026.5;;;28.7;36.9
74437;BME280;62868;52.360;30.424;2023-09-19T09:01:23;1026.6;;;28.6;36.4
74437;BME280;62868;52.360;30.424;2023-09-19T09:05:53;1026.5;;;28.6;36.1
74437;BME280;62868;52.360;30.424;2023-09-19T09:11:11;1026.4;;;28.4;35.3
74437;BME280;62868;52.360;30.424;2023-09-19T09:15:59;1026.3;;;28.4;35
74437;BME280;62868;52.360;30.424;2023-09-19T09:21:31;1026.3;;;28.5;34.8
74437;BME280;62868;52.360;30.424;2023-09-19T09:26:09;1026.3;;;28.5;34.6
74437;BME280;62868;52.360;30.424;2023-09-19T09:31:25;1026.3;;;28.6;34.4
74437;BME280;62868;52.360;30.424;2023-09-19T09:35:49;1026.1;;;28.7;34.1
74437;BME280;62868;52.360;30.424;2023-09-19T09:40:48;1026.1;;;28.9;34
74437;BME280;62868;52.360;30.424;2023-09-19T09:46:12;1026.1;;;28.7;33.6
74437;BME280;62868;52.360;30.424;2023-09-19T09:50:46;1026;;;28.8;33.3
74437;BME280;62868;52.360;30.424;2023-09-19T09:56:00;1026;;;28.7;32.6
74437;BME280;62868;52.360;30.424;2023-09-19T10:01:45;1026;;;28.6;32.5
74437;BME280;62868;52.360;30.424;2023-09-19T10:06:40;1026;;;28.6;32.3
74437;BME280;62868;52.360;30.424;2023-09-19T10:11:31;1025.8;;;28.7;32.3
74437;BME280;62868;52.360;30.424;2023-09-19T10:16:17;1025.7;;;28.9;32.2
74437;BME280;62868;52.360;30.424;2023-09-19T10:21:31;1025.8;;;28.9;32
74437;BME280;62868;52.360;30.424;2023-09-19T10:25:51;1025.6;;;28.9;31.8
74437;BME280;62868;52.360;30.424;2023-09-19T10:30:46;1025.6;;;29.1;31.4
74437;BME280;62868;52.360;30.424;2023-09-19T10:36:11;1025.6;;;29;31.1
74437;BME280;62868;52.360;30.424;2023-09-19T10:41:03;1025.6;;;29;31
74437;BME280;62868;52.360;30.424;2023-09-19T10:46:11;1025.6;;;29.1;30.8
74437;BME280;62868;52.360;30.424;2023-09-19T10:51:11;1025.5;;;28.9;30.5
74437;BME280;62868;52.360;30.424;2023-09-19T10:56:32;1025.5;;;28.8;30.4
74437;BME280;62868;52.360;30.424;2023-09-19T11:01:40;1025.4;;;28.8;30.2
74437;BME280;62868;52.360;30.424;2023-09-19T11:06:10;1025.4;;;28.7;30
74437;BME280;62868;52.360;30.424;2023-09-19T11:11:39;1025.3;;;28.7;29.8
74437;BME280;62868;52.360;30.424;2023-09-19T11:16:03;1025.2;;;28.7;30
74437;BME280;62868;52.360;30.424;2023-09-19T11:20:45;1025.2;;;28.8;29.9
74437;BME280;62868;52.360;30.424;2023-09-19T11:26:19;1025.2;;;28.9;29.9
74437;BME280;62868;52.360;30.424;2023-09-19T11:30:45;1025.2;;;28.9;30
74437;BME280;62868;52.360;30.424;2023-09-19T11:35:58;1025.1;;;28.8;30
74437;BME280;62868;52.360;30.424;2023-09-19T11:41:43;1025.1;;;28.7;30.2
74437;BME280;62868;52.360;30.424;2023-09-19T11:46:17;1025.1;;;28.7;30.5
74437;BME280;62868;52.360;30.424;2023-09-19T11:51:37;1025;;;28.7;30.6
74437;BME280;62868;52.360;30.424;2023-09-19T11:55:53;1025;;;28.5;30.9
74437;BME280;62868;52.360;30.424;2023-09-19T12:00:45;1025;;;28.3;31.2
74437;BME280;62868;52.360;30.424;2023-09-19T12:05:51;1025;;;28.2;31.5
74437;BME280;62868;52.360;30.424;2023-09-19T12:11:13;1024.9;;;28.1;31.8
74437;BME280;62868;52.360;30.424;2023-09-19T12:16:29;1024.8;;;28;32
74437;BME280;62868;52.360;30.424;2023-09-19T12:20:45;1024.7;;;28;32.2
74437;BME280;62868;52.360;30.424;2023-09-19T12:25:45;1024.8;;;28;32.5
74437;BME280;62868;52.360;30.424;2023-09-19T12:31:09;1024.7;;;27.9;32.7
74437;BME280;62868;52.360;30.424;2023-09-19T12:35:51;1024.7;;;27.9;32.9
74437;BME280;62868;52.360;30.424;2023-09-19T12:41:31;1024.7;;;27.8;33.3
74437;BME280;62868;52.360;30.424;2023-09-19T12:45:59;1024.6;;;27.8;33.5
74437;BME280;62868;52.360;30.424;2023-09-19T12:51:01;1024.6;;;27.7;33.7
74437;BME280;62868;52.360;30.424;2023-09-19T12:56:12;1024.6;;;27.6;33.9
74437;BME280;62868;52.360;30.424;2023-09-19T13:01:13;1024.6;;;27.5;34.1
74437;BME280;62868;52.360;30.424;2023-09-19T13:06:35;1024.5;;;27.3;34.3
74437;BME280;62868;52.360;30.424;2023-09-19T13:11:23;1024.4;;;27.4;34.4
74437;BME280;62868;52.360;30.424;2023-09-19T13:15:51;1024.4;;;27.4;34.4
74437;BME280;62868;52.360;30.424;2023-09-19T13:21:11;1024.3;;;27.3;34.4
74437;BME280;62868;52.360;30.424;2023-09-19T13:25:51;1024.3;;;27.3;34.4
74437;BME280;62868;52.360;30.424;2023-09-19T13:31:31;1024.3;;;27.2;34.3
74437;BME280;62868;52.360;30.424;2023-09-19T13:36:31;1024.2;;;27.2;34.1
74437;BME280;62868;52.360;30.424;2023-09-19T13:40:45;1024.2;;;27.2;33.9
74437;BME280;62868;52.360;30.424;2023-09-19T13:45:45;1024.2;;;27.1;33.7
74437;BME280;62868;52.360;30.424;2023-09-19T13:50:59;1024.1;;;27.1;33.6
74437;BME280;62868;52.360;30.424;2023-09-19T13:56:31;1024.2;;;26.9;33.3
74437;BME280;62868;52.360;30.424;2023-09-19T14:00:45;1024.1;;;26.8;33.1
74437;BME280;62868;52.360;30.424;2023-09-19T14:05:57;1024.1;;;26.8;33.1
74437;BME280;62868;52.360;30.424;2023-09-19T14:11:11;1024.1;;;26.7;33
74437;BME280;62868;52.360;30.424;2023-09-19T14:15:45;1024.1;;;26.7;32.9
74437;BME280;62868;52.360;30.424;2023-09-19T14:21:31;1024.1;;;26.6;32.7
74437;BME280;62868;52.360;30.424;2023-09-19T14:26:23;1024;;;26.5;32.6
74437;BME280;62868;52.360;30.424;2023-09-19T14:30:45;1024.1;;;26.4;32.5
74437;BME280;62868;52.360;30.424;2023-09-19T14:36:02;1024.1;;;26.3;32.3
74437;BME280;62868;52.360;30.424;2023-09-19T14:40:58;1024;;;26.2;32.2
74437;BME280;62868;52.360;30.424;2023-09-19T14:46:31;1024;;;26.1;32.1
74437;BME280;62868;52.360;30.424;2023-09-19T14:50:55;1024;;;26;32.1
74437;BME280;62868;52.360;30.424;2023-09-19T14:55:59;1023.9;;;26;32.1
74437;BME280;62868;52.360;30.424;2023-09-19T15:01:12;1023.9;;;25.9;32.1
74437;BME280;62868;52.360;30.424;2023-09-19T15:06:11;1023.9;;;25.7;32.2
74437;BME280;62868;52.360;30.424;2023-09-19T15:11:31;1024;;;25.6;32.3
74437;BME280;62868;52.360;30.424;2023-09-19T15:16:11;1024;;;25.5;32.6
74437;BME280;62868;52.360;30.424;2023-09-19T15:20:51;1024;;;25.3;32.9
74437;BME280;62868;52.360;30.424;2023-09-19T15:25:57;1024;;;25.1;33.2
74437;BME280;62868;52.360;30.424;2023-09-19T15:30:59;1024;;;24.9;33.5
74437;BME280;62868;52.360;30.424;2023-09-19T15:36:31;1024;;;24.7;33.8
74437;BME280;62868;52.360;30.424;2023-09-19T15:40:46;1024;;;24.5;34
74437;BME280;62868;52.360;30.424;2023-09-19T15:45:57;1024;;;24.3;34.2
74437;BME280;62868;52.360;30.424;2023-09-19T15:51:09;1024;;;24.1;34.5
74437;BME280;62868;52.360;30.424;2023-09-19T15:56:17;1023.9;;;23.9;34.7
74437;BME280;62868;52.360;30.424;2023-09-19T16:01:31;1024;;;23.7;35
74437;BME280;62868;52.360;30.424;2023-09-19T16:06:12;1024;;;23.6;35.1
74437;BME280;62868;52.360;30.424;2023-09-19T16:11:11;1024;;;23.4;35.4
74437;BME280;62868;52.360;30.424;2023-09-19T16:15:51;1024;;;23.2;35.6
74437;BME280;62868;52.360;30.424;2023-09-19T16:21:05;1024;;;23;35.8
74437;BME280;62868;52.360;30.424;2023-09-19T16:26:31;1024;;;22.9;35.9
74437;BME280;62868;52.360;30.424;2023-09-19T16:30:57;1024.1;;;22.8;36.1
74437;BME280;62868;52.360;30.424;2023-09-19T16:35:45;1024.1;;;22.6;36.4
74437;BME280;62868;52.360;30.424;2023-09-19T16:41:11;1024.1;;;22.4;36.6
74437;BME280;62868;52.360;30.424;2023-09-19T16:46:23;1024.1;;;22.3;36.8
74437;BME280;62868;52.360;30.424;2023-09-19T16:51:31;1024.1;;;22.1;37
74437;BME280;62868;52.360;30.424;2023-09-19T16:56:23;1024.2;;;22;37.2
74437;BME280;62868;52.360;30.424;2023-09-19T17:00:51;1024.2;;;21.9;37.4
74437;BME280;62868;52.360;30.424;2023-09-19T17:05:57;1024.2;;;21.8;37.5
74437;BME280;62868;52.360;30.424;2023-09-19T17:11:01;1024.2;;;21.6;37.8
74437;BME280;62868;52.360;30.424;2023-09-19T17:16:31;1024.2;;;21.4;38
74437;BME280;62868;52.360;30.424;2023-09-19T17:21:04;1024.3;;;21.3;38.3
74437;BME280;62868;52.360;30.424;2023-09-19T17:25:45;1024.3;;;21.1;38.5
74437;BME280;62868;52.360;30.424;2023-09-19T17:31:12;1024.3;;;20.9;38.8
74437;BME280;62868;52.360;30.424;2023-09-19T17:36:12;1024.3;;;20.8;39
74437;BME280;62868;52.360;30.424;2023-09-19T17:41:31;1024.3;;;20.7;39.2
74437;BME280;62868;52.360;30.424;2023-09-19T17:46:23;1024.4;;;20.5;39.5
74437;BME280;62868;52.360;30.424;2023-09-19T17:51:17;1024.3;;;20.4;39.5
74437;BME280;62868;52.360;30.424;2023-09-19T17:55:45;1024.3;;;20.3;39.7
74437;BME280;62868;52.360;30.424;2023-09-19T18:01:24;1024.3;;;20.2;39.8
74437;BME280;62868;52.360;30.424;2023-09-19T18:06:12;1024.3;;;20.1;40
74437;BME280;62868;52.360;30.424;2023-09-19T18:11:21;1024.2;;;20.1;40.2
74437;BME280;62868;52.360;30.424;2023-09-19T18:16:19;1024.2;;;20;40.3
74437;BME280;62868;52.360;30.424;2023-09-19T18:21:13;1024.3;;;19.9;40.5
74437;BME280;62868;52.360;30.424;2023-09-19T18:26:23;1024.2;;;19.9;40.7
74437;BME280;62868;52.360;30.424;2023-09-19T18:31:31;1024.2;;;19.9;40.7
74437;BME280;62868;52.360;30.424;2023-09-19T18:36:17;1024.3;;;19.8;40.8
74437;BME280;62868;52.360;30.424;2023-09-19T18:41:09;1024.3;;;19.7;41
74437;BME280;62868;52.360;30.424;2023-09-19T18:45:53;1024.3;;;19.7;41.2
74437;BME280;62868;52.360;30.424;2023-09-19T18:51:04;1024.2;;;19.6;41.3
74437;BME280;62868;52.360;30.424;2023-09-19T18:56:33;1024.2;;;19.6;41.5
74437;BME280;62868;52.360;30.424;2023-09-19T19:01:04;1024.2;;;19.5;41.6
74437;BME280;62868;52.360;30.424;2023-09-19T19:06:02;1024.2;;;19.4;41.9
74437;BME280;62868;52.360;30.424;2023-09-19T19:11:21;1024.2;;;19.3;42.1
74437;BME280;62868;52.360;30.424;2023-09-19T19:16:23;1024.2;;;19.2;42.4
74437;BME280;62868;52.360;30.424;2023-09-19T19:21:23;1024.2;;;19.1;42.5
74437;BME280;62868;52.360;30.424;2023-09-19T19:25:53;1024.1;;;19;42.7
74437;BME280;62868;52.360;30.424;2023-09-19T19:30:51;1024.1;;;18.9;43
74437;BME280;62868;52.360;30.424;2023-09-19T19:35:51;1024.1;;;18.9;43.2
74437;BME280;62868;52.360;30.424;2023-09-19T19:41:32;1024.1;;;18.8;43.4
74437;BME280;62868;52.360;30.424;2023-09-19T19:46:23;1024;;;18.7;43.7
74437;BME280;62868;52.360;30.424;2023-09-19T19:51:19;1024;;;18.7;43.8
74437;BME280;62868;52.360;30.424;2023-09-19T19:56:07;1024;;;18.6;44
74437;BME280;62868;52.360;30.424;2023-09-19T20:01:01;1024;;;18.5;44.2
74437;BME280;62868;52.360;30.424;2023-09-19T20:06:33;1024;;;18.5;44.3
74437;BME280;62868;52.360;30.424;2023-09-19T20:11:09;1024;;;18.4;44.3
74437;BME280;62868;52.360;30.424;2023-09-19T20:15:53;1024.1;;;18.4;44.5
74437;BME280;62868;52.360;30.424;2023-09-19T20:20:51;1024;;;18.3;44.7
74437;BME280;62868;52.360;30.424;2023-09-19T20:25:49;1024;;;18.2;44.8
74437;BME280;62868;52.360;30.424;2023-09-19T20:31:32;1024;;;18.2;44.9
74437;BME280;62868;52.360;30.424;2023-09-19T20:36:21;1024;;;18.1;44.9
74437;BME280;62868;52.360;30.424;2023-09-19T20:41:17;1024;;;18.1;45.1
74437;BME280;62868;52.360;30.424;2023-09-19T20:45:43;1024;;;18;45.1
74437;BME280;62868;52.360;30.424;2023-09-19T20:51:19;1023.9;;;18;45.2
74437;BME280;62868;52.360;30.424;2023-09-19T20:56:31;1023.9;;;18;45.3
74437;BME280;62868;52.360;30.424;2023-09-19T21:00:45;1024;;;17.9;45.4
74437;BME280;62868;52.360;30.424;2023-09-19T21:05:45;1023.9;;;17.9;45.6
74437;BME280;62868;52.360;30.424;2023-09-19T21:10:45;1023.9;;;17.8;45.7
74437;BME280;62868;52.360;30.424;2023-09-19T21:16:00;1023.9;;;17.7;45.9
74437;BME280;62868;52.360;30.424;2023-09-19T21:21:33;1023.9;;;17.7;46
74437;BME280;62868;52.360;30.424;2023-09-19T21:26:23;1023.9;;;17.6;46
74437;BME280;62868;52.360;30.424;2023-09-19T21:31:20;1024;;;17.6;46.2
74437;BME280;62868;52.360;30.424;2023-09-19T21:35:59;1023.9;;;17.6;46.1
74437;BME280;62868;52.360;30.424;2023-09-19T21:41:19;1023.9;;;17.5;46.3
74437;BME280;62868;52.360;30.424;2023-09-19T21:46:33;1023.9;;;17.4;46.4
74437;BME280;62868;52.360;30.424;2023-09-19T21:51:16;1023.9;;;17.4;46.6
74437;BME280;62868;52.360;30.424;2023-09-19T21:55:45;1023.9;;;17.3;46.6
74437;BME280;62868;52.360;30.424;2023-09-19T22:01:27;1023.8;;;17.3;46.7
74437;BME280;62868;52.360;30.424;2023-09-19T22:06:01;1023.8;;;17.2;46.8
74437;BME280;62868;52.360;30.424;2023-09-19T22:11:33;1023.8;;;17.2;46.9
74437;BME280;62868;52.360;30.424;2023-09-19T22:16:12;1023.8;;;17.2;46.9
74437;BME280;62868;52.360;30.424;2023-09-19T22:21:20;1023.8;;;17.1;46.9
74437;BME280;62868;52.360;30.424;2023-09-19T22:25:59;1023.9;;;17;47.1
74437;BME280;62868;52.360;30.424;2023-09-19T22:31:01;1023.8;;;17;47.2
74437;BME280;62868;52.360;30.424;2023-09-19T22:36:33;1023.9;;;16.9;47.4
74437;BME280;62868;52.360;30.424;2023-09-19T22:41:03;1023.9;;;16.8;47.5
74437;BME280;62868;52.360;30.424;2023-09-19T22:45:45;1023.9;;;16.8;47.6
74437;BME280;62868;52.360;30.424;2023-09-19T22:50:45;1023.9;;;16.7;47.7
74437;BME280;62868;52.360;30.424;2023-09-19T22:55:59;1024;;;16.7;47.8
74437;BME280;62868;52.360;30.424;2023-09-19T23:01:14;1024;;;16.6;47.9
74437;BME280;62868;52.360;30.424;2023-09-19T23:06:34;1024.1;;;16.6;47.9
74437;BME280;62868;52.360;30.424;2023-09-19T23:11:05;1024.1;;;16.6;47.9
74437;BME280;62868;52.360;30.424;2023-09-19T23:16:01;1024.1;;;16.6;48
74437;BME280;62868;52.360;30.424;2023-09-19T23:21:23;1024.2;;;16.7;48
74437;BME280;62868;52.360;30.424;2023-09-19T23:26:33;1024.2;;;16.7;48
74437;BME280;62868;52.360;30.424;2023-09-19T23:31:23;1024.2;;;16.7;48
74437;BME280;62868;52.360;30.424;2023-09-19T23:35:45;1024.2;;;16.8;48
74437;BME280;62868;52.360;30.424;2023-09-19T23:40:47;1024.2;;;16.9;47.9
74437;BME280;62868;52.360;30.424;2023-09-19T23:46:21;1024.2;;;17;47.8
74437;BME280;62868;52.360;30.424;2023-09-19T23:51:33;1024.2;;;17.1;47.8
74437;BME280;62868;52.360;30.424;2023-09-19T23:56:21;1024.2;;;17.2;47.8
